ESOK

Karlstad Airport

Karlstad, Sweden
METAR ESOK 180820Z 21013KT 9000 -DZ OVC003 02/01 Q1016
Observed Flight Rules
Dec-18 @ 08:20 UTC (39 minutes ago) Instrument Flight Rules
Wind Visibility Clouds Conditions
210° at 13 knots 8,996 meters
  • Overcast at 300' AGL
  • Light Drizzle
Temperatures Readings
Current 2°C / 36°F
Dewpoint 1°C / 34°F
Humidity 93%
Altimeter 30" Hg
Pressure 1016 hPa
Elevation 107
METAR ESOK 180820Z 21013KT 9000 -DZ OVC003 02/01 Q1016
Observed Flight Rules
Dec-18 @ 08:20 UTC
(39 minutes ago)
LIFR
Wind Visibility
210° at 13 knots 8,996 meters
Clouds
  • Overcast at 300' AGL
Conditions
  • Light Drizzle
Temperature Dewpoint
2°C / 36°F 1°C / 34°F
Humidity Altimeter Pressure
93% 30" Hg 1016 hPa